Time;durP1;ratioP1;P1;durP2;ratioP2;P2;SDS_P1;SDS_P2;PMS_P1;PMS_P2;Temp;Humidity;BMP_temperature;BMP_pressure;BME280_temperature;BME280_humidity;BME280_pressure;Samples;Min_cycle;Max_cycle;Signal;HPM_P1;HPM_P2
2021/08/22 00:01:06;;;;;;;11.48;10.38;;;19.20;99.90;;;;;;5071142;28;20388;-80
2021/08/22 00:03:31;;;;;;;10.85;9.75;;;19.10;99.90;;;;;;5071414;28;20487;-79
2021/08/22 00:05:57;;;;;;;12.30;11.07;;;19.10;99.90;;;;;;5072966;28;20021;-80
2021/08/22 00:08:22;;;;;;;12.00;10.77;;;19.10;99.90;;;;;;5083945;28;20372;-79
2021/08/22 00:10:48;;;;;;;10.77;9.50;;;19.10;99.90;;;;;;5082135;28;20078;-79
2021/08/22 00:13:14;;;;;;;11.85;10.65;;;19.10;99.90;;;;;;5071251;28;20029;-78
2021/08/22 00:15:39;;;;;;;11.52;10.43;;;19.00;99.90;;;;;;5070676;28;20100;-78
2021/08/22 00:18:05;;;;;;;11.70;10.55;;;19.00;99.90;;;;;;5071158;28;20033;-78
2021/08/22 00:20:30;;;;;;;12.77;11.57;;;19.00;99.90;;;;;;5071382;28;20025;-78
2021/08/22 00:22:56;;;;;;;12.70;10.60;;;19.00;99.90;;;;;;5071156;28;20020;-79
2021/08/22 00:25:21;;;;;;;13.57;12.23;;;19.00;99.90;;;;;;5071329;28;20020;-80
2021/08/22 00:27:47;;;;;;;12.15;10.90;;;18.80;99.90;;;;;;5071496;28;20066;-80
2021/08/22 00:30:13;;;;;;;15.00;11.50;;;18.90;99.90;;;;;;5075516;28;20124;-79
2021/08/22 00:32:38;;;;;;;12.88;11.55;;;18.90;99.90;;;;;;5081254;28;20028;-80
2021/08/22 00:35:04;;;;;;;13.52;12.18;;;18.90;99.90;;;;;;5070918;28;20048;-80
2021/08/22 00:37:30;;;;;;;15.15;13.73;;;18.90;99.90;;;;;;5072824;28;20040;-79
2021/08/22 00:39:57;;;;;;;14.23;12.90;;;18.90;99.90;;;;;;5075369;28;20037;-79
2021/08/22 00:42:24;;;;;;;15.35;13.60;;;18.90;99.90;;;;;;5074634;28;20070;-79
2021/08/22 00:44:50;;;;;;;17.90;16.05;;;18.90;99.90;;;;;;5074958;28;20086;-80
2021/08/22 00:47:15;;;;;;;16.08;14.48;;;18.90;99.90;;;;;;5089803;28;20464;-80
2021/08/22 00:49:41;;;;;;;14.88;13.15;;;18.90;99.90;;;;;;5074187;28;20052;-79
2021/08/22 00:52:07;;;;;;;16.90;14.23;;;18.80;99.90;;;;;;5075157;28;20021;-79
2021/08/22 00:54:36;;;;;;;15.38;13.65;;;18.80;99.90;;;;;;5074538;28;20016;-80
2021/08/22 00:57:02;;;;;;;16.75;13.43;;;18.80;99.90;;;;;;5088463;28;20031;-78
2021/08/22 00:59:28;;;;;;;21.05;15.00;;;18.80;99.90;;;;;;5075024;28;20048;-78
2021/08/22 01:01:57;;;;;;;19.27;16.02;;;18.70;99.90;;;;;;5074957;28;20460;-78
2021/08/22 01:04:33;;;;;;;20.85;16.10;;;18.80;99.90;;;;;;5074336;28;20020;-78
2021/08/22 01:07:12;;;;;;;17.67;14.50;;;18.80;99.90;;;;;;5074970;28;20017;-79
2021/08/22 01:09:45;;;;;;;19.98;16.00;;;18.80;99.90;;;;;;5074527;28;20105;-80
2021/08/22 01:12:23;;;;;;;19.65;15.13;;;18.70;99.90;;;;;;5073815;28;20027;-79
2021/08/22 01:14:51;;;;;;;18.52;14.07;;;18.70;99.90;;;;;;5087790;28;20028;-78
2021/08/22 01:17:20;;;;;;;16.95;13.60;;;18.70;99.90;;;;;;5073819;28;20070;-78
2021/08/22 01:20:08;;;;;;;17.75;12.13;;;18.60;99.90;;;;;;5074106;28;20039;-80
2021/08/22 01:22:36;;;;;;;13.43;10.50;;;18.60;99.90;;;;;;5074253;28;20024;-79
2021/08/22 01:25:03;;;;;;;14.30;10.77;;;18.60;99.90;;;;;;5074020;28;20043;-80
2021/08/22 01:27:30;;;;;;;10.38;9.27;;;18.60;99.90;;;;;;5074028;28;20060;-77
2021/08/22 01:30:06;;;;;;;12.10;9.38;;;18.50;99.90;;;;;;5074283;28;20028;-79
2021/08/22 01:32:42;;;;;;;13.27;7.50;;;18.50;99.90;;;;;;5073221;28;20119;-78
2021/08/22 01:35:10;;;;;;;12.10;8.20;;;18.50;99.90;;;;;;5079411;28;20020;-78
2021/08/22 01:37:41;;;;;;;9.63;7.60;;;18.50;99.90;;;;;;5082626;28;20041;-78
2021/08/22 01:40:07;;;;;;;;;;;18.40;99.90;;;;;;5073804;28;20032;-77
2021/08/22 01:42:38;;;;;;;10.50;7.82;;;18.40;99.90;;;;;;5073543;28;19937;-80
2021/08/22 01:45:06;;;;;;;10.95;7.10;;;18.30;99.90;;;;;;5074402;28;20074;-80
2021/08/22 01:47:33;;;;;;;7.82;7.00;;;18.30;99.90;;;;;;5073154;28;20025;-77
2021/08/22 01:49:59;;;;;;;8.00;7.18;;;18.30;99.90;;;;;;5074342;28;20073;-78
2021/08/22 01:52:25;;;;;;;8.40;7.35;;;18.20;99.90;;;;;;5073434;28;20016;-76
2021/08/22 01:54:50;;;;;;;10.45;7.45;;;18.10;99.90;;;;;;5073944;28;20483;-79
2021/08/22 01:57:17;;;;;;;8.23;7.10;;;18.10;99.90;;;;;;5088243;28;20013;-79
2021/08/22 01:59:43;;;;;;;10.13;7.15;;;18.00;99.90;;;;;;5072810;28;20041;-78
2021/08/22 02:02:10;;;;;;;10.45;7.80;;;17.90;99.90;;;;;;5073651;28;20103;-77
2021/08/22 02:04:52;;;;;;;7.85;6.85;;;17.90;99.90;;;;;;5074345;28;20027;-79
2021/08/22 02:07:19;;;;;;;8.57;7.13;;;17.80;99.90;;;;;;5077645;28;20117;-78
2021/08/22 02:10:07;;;;;;;10.40;7.82;;;17.80;99.90;;;;;;5083128;28;20029;-79
2021/08/22 02:12:33;;;;;;;15.10;9.10;;;17.70;99.90;;;;;;5073145;28;20024;-77
2021/08/22 02:15:15;;;;;;;9.82;7.90;;;17.70;99.90;;;;;;5072904;28;20465;-77
2021/08/22 02:17:52;;;;;;;11.48;8.32;;;17.60;99.90;;;;;;5087168;28;20026;-80
2021/08/22 02:20:19;;;;;;;11.90;7.88;;;17.60;99.90;;;;;;5082443;28;20051;-77
2021/08/22 02:22:46;;;;;;;21.90;8.48;;;17.60;99.90;;;;;;5079076;28;20112;-78
2021/08/22 02:25:13;;;;;;;14.23;7.80;;;17.60;99.90;;;;;;5086410;28;20033;-77
2021/08/22 02:27:38;;;;;;;12.77;8.10;;;17.70;99.90;;;;;;5072847;28;20032;-78
2021/08/22 02:30:05;;;;;;;12.07;7.88;;;17.70;99.90;;;;;;5073339;28;20027;-77
2021/08/22 02:32:31;;;;;;;10.38;8.63;;;17.70;99.90;;;;;;5072886;28;20103;-78
2021/08/22 02:34:56;;;;;;;11.38;8.88;;;17.70;99.90;;;;;;5072174;28;20096;-79
2021/08/22 02:37:22;;;;;;;14.35;10.45;;;17.70;99.90;;;;;;5072665;28;20043;-79
2021/08/22 02:39:48;;;;;;;12.77;9.75;;;17.70;99.90;;;;;;5086706;28;20074;-77
2021/08/22 02:42:15;;;;;;;21.67;11.73;;;17.60;99.90;;;;;;5072400;28;20055;-77
2021/08/22 02:44:41;;;;;;;15.75;10.57;;;17.60;99.90;;;;;;5072740;28;20357;-78
2021/08/22 02:47:07;;;;;;;19.25;13.13;;;17.60;99.90;;;;;;5072472;28;20472;-78
2021/08/22 02:49:33;;;;;;;18.70;12.05;;;17.50;99.90;;;;;;5071653;28;20082;-78
2021/08/22 02:51:58;;;;;;;24.00;13.13;;;17.50;99.90;;;;;;5072433;28;20040;-79
2021/08/22 02:54:24;;;;;;;16.13;11.10;;;17.40;99.90;;;;;;5072701;28;20087;-79
2021/08/22 02:56:49;;;;;;;20.88;11.68;;;17.40;99.90;;;;;;5072301;28;20075;-78
2021/08/22 02:59:15;;;;;;;20.15;13.27;;;17.40;99.90;;;;;;5072281;28;20468;-80
2021/08/22 03:01:41;;;;;;;22.27;12.95;;;17.30;99.90;;;;;;5072243;28;20396;-79
2021/08/22 03:04:07;;;;;;;24.48;14.32;;;17.30;99.90;;;;;;5071711;28;20441;-78
2021/08/22 03:06:32;;;;;;;20.80;14.02;;;17.30;99.90;;;;;;5072395;28;20024;-79
2021/08/22 03:09:00;;;;;;;24.05;14.43;;;17.30;99.90;;;;;;5076246;28;20024;-80
2021/08/22 03:11:25;;;;;;;22.27;14.23;;;17.20;99.90;;;;;;5082243;28;20154;-78
2021/08/22 03:13:51;;;;;;;27.88;14.88;;;17.20;99.90;;;;;;5072136;28;20114;-78
2021/08/22 03:16:16;;;;;;;24.67;15.98;;;17.20;99.90;;;;;;5072168;28;20024;-78
2021/08/22 03:18:42;;;;;;;26.55;16.33;;;17.10;99.90;;;;;;5071205;28;20084;-78
2021/08/22 03:21:07;;;;;;;28.38;16.55;;;17.10;99.90;;;;;;5071976;28;20372;-78
2021/08/22 03:23:33;;;;;;;29.60;16.23;;;17.00;99.90;;;;;;5071798;28;20765;-79
2021/08/22 03:25:59;;;;;;;29.25;17.38;;;17.00;99.90;;;;;;5071510;28;20032;-79
2021/08/22 03:28:26;;;;;;;30.25;18.27;;;17.00;99.90;;;;;;5072127;28;20020;-79
2021/08/22 03:30:53;;;;;;;28.40;18.83;;;17.00;99.90;;;;;;5071417;28;20042;-79
2021/08/22 03:33:19;;;;;;;38.70;19.20;;;16.90;99.90;;;;;;5071770;28;20013;-79
2021/08/22 03:35:45;;;;;;;35.47;20.85;;;16.90;99.90;;;;;;5071575;28;20071;-78
2021/08/22 03:38:10;;;;;;;39.25;21.02;;;16.90;99.90;;;;;;5070725;28;20053;-78
2021/08/22 03:40:36;;;;;;;37.10;20.63;;;17.00;99.90;;;;;;5071649;28;20016;-78
2021/08/22 03:43:02;;;;;;;34.33;21.17;;;16.90;99.90;;;;;;5071715;28;20070;-79
2021/08/22 03:45:27;;;;;;;36.17;21.63;;;16.90;99.90;;;;;;5070599;28;20039;-79
2021/08/22 03:47:53;;;;;;;38.63;21.15;;;16.90;99.90;;;;;;5071860;28;20027;-77
2021/08/22 03:50:18;;;;;;;41.70;22.30;;;16.90;99.90;;;;;;5071593;28;20059;-78
2021/08/22 03:52:47;;;;;;;40.30;23.17;;;16.90;99.90;;;;;;5070753;28;20043;-80
2021/08/22 03:55:13;;;;;;;48.58;25.55;;;16.80;99.90;;;;;;5071622;28;20034;-77
2021/08/22 03:57:39;;;;;;;44.13;23.63;;;16.80;99.90;;;;;;5071643;28;20025;-78
2021/08/22 04:00:05;;;;;;;50.72;24.95;;;16.80;99.90;;;;;;5070625;28;20028;-77
2021/08/22 04:02:30;;;;;;;46.35;25.83;;;16.80;99.90;;;;;;5071643;28;20020;-78
2021/08/22 04:04:56;;;;;;;41.42;25.30;;;16.80;99.90;;;;;;5071607;28;20111;-80
2021/08/22 04:07:21;;;;;;;47.22;25.17;;;16.80;99.90;;;;;;5071264;28;20065;-78
2021/08/22 04:09:48;;;;;;;55.72;28.63;;;16.90;99.90;;;;;;5071788;28;20393;-78
2021/08/22 04:12:13;;;;;;;50.50;28.08;;;16.90;99.90;;;;;;5074521;28;20531;-78
2021/08/22 04:14:39;;;;;;;50.97;28.67;;;17.10;99.90;;;;;;5074625;28;20111;-80
2021/08/22 04:17:04;;;;;;;56.35;29.95;;;17.00;99.90;;;;;;5075558;28;20054;-79
2021/08/22 04:19:30;;;;;;;60.30;30.92;;;17.10;99.90;;;;;;5077444;28;20086;-79
2021/08/22 04:21:57;;;;;;;53.03;28.50;;;17.10;99.90;;;;;;5086754;28;20044;-78
2021/08/22 04:24:23;;;;;;;51.92;30.33;;;17.20;99.90;;;;;;5075759;28;20028;-80
2021/08/22 04:26:49;;;;;;;56.40;30.15;;;17.20;99.90;;;;;;5075252;28;20078;-77
2021/08/22 04:29:15;;;;;;;51.65;30.63;;;17.30;99.90;;;;;;5074856;28;20074;-78
2021/08/22 04:31:41;;;;;;;59.83;30.90;;;17.30;99.90;;;;;;5075000;28;20016;-80
2021/08/22 04:34:07;;;;;;;57.05;31.48;;;17.40;99.90;;;;;;5085775;28;20200;-79
2021/08/22 04:36:33;;;;;;;52.28;30.38;;;17.40;99.90;;;;;;5078565;28;20031;-79
2021/08/22 04:38:58;;;;;;;54.88;29.75;;;17.50;99.90;;;;;;5075579;28;20048;-78
2021/08/22 04:41:24;;;;;;;53.63;28.25;;;17.50;99.90;;;;;;5075725;28;20020;-78
2021/08/22 04:43:52;;;;;;;52.00;30.85;;;17.70;99.90;;;;;;5083191;28;20361;-79
2021/08/22 04:46:17;;;;;;;56.20;30.50;;;17.50;99.90;;;;;;5082882;28;20021;-78
2021/08/22 04:48:43;;;;;;;47.45;28.20;;;17.50;99.90;;;;;;5079212;28;20028;-79
2021/08/22 04:51:09;;;;;;;44.75;28.85;;;17.50;99.90;;;;;;5085541;28;20020;-80
2021/08/22 04:53:34;;;;;;;48.22;29.83;;;17.50;99.90;;;;;;5075243;28;20029;-80
2021/08/22 04:56:00;;;;;;;45.20;29.65;;;17.60;99.90;;;;;;5074924;28;20020;-80
2021/08/22 04:58:26;;;;;;;44.25;28.55;;;17.60;99.90;;;;;;5074699;28;20102;-80
2021/08/22 05:00:51;;;;;;;43.67;28.60;;;17.60;99.90;;;;;;5074578;28;20020;-79
2021/08/22 05:03:18;;;;;;;44.85;27.33;;;17.60;99.90;;;;;;5073888;28;20060;-79
2021/08/22 05:05:43;;;;;;;42.00;28.02;;;17.60;99.90;;;;;;5073966;28;20067;-79
2021/08/22 05:08:09;;;;;;;43.00;27.80;;;17.60;99.90;;;;;;5074659;28;20024;-78
2021/08/22 05:10:38;;;;;;;46.42;26.80;;;18.40;99.90;;;;;;5075846;28;20534;-78
2021/08/22 05:13:03;;;;;;;43.83;27.38;;;17.60;99.90;;;;;;5084802;28;20040;-79
2021/08/22 05:15:29;;;;;;;39.38;26.58;;;17.60;99.90;;;;;;5073695;28;20017;-78
2021/08/22 05:17:54;;;;;;;40.38;27.52;;;17.60;99.90;;;;;;5073057;28;20070;-79
2021/08/22 05:20:20;;;;;;;39.40;26.10;;;17.60;99.90;;;;;;5074544;28;20039;-79
2021/08/22 05:22:46;;;;;;;42.10;28.40;;;17.70;99.90;;;;;;5074765;28;20095;-79
2021/08/22 05:25:11;;;;;;;38.90;26.15;;;17.70;99.90;;;;;;5086494;28;20469;-78
2021/08/22 05:27:37;;;;;;;39.22;25.80;;;17.70;99.90;;;;;;5074194;28;20078;-79
2021/08/22 05:30:03;;;;;;;38.30;26.45;;;17.80;99.90;;;;;;5074434;28;20024;-79
2021/08/22 05:32:29;;;;;;;41.00;26.50;;;17.70;99.90;;;;;;5073700;28;20086;-78
2021/08/22 05:34:55;;;;;;;40.08;25.65;;;17.80;99.90;;;;;;5074173;28;20438;-80
2021/08/22 05:37:21;;;;;;;37.95;24.70;;;17.70;99.90;;;;;;5073322;28;20049;-78
2021/08/22 05:39:48;;;;;;;42.55;25.42;;;17.80;99.90;;;;;;5074640;28;20550;-79
2021/08/22 05:42:13;;;;;;;39.28;25.40;;;17.90;99.90;;;;;;5081711;28;20360;-80
2021/08/22 05:44:39;;;;;;;31.70;22.83;;;17.90;99.90;;;;;;5079477;28;20316;-78
2021/08/22 05:47:04;;;;;;;34.60;23.70;;;17.90;99.90;;;;;;5073684;28;20481;-80
2021/08/22 05:49:30;;;;;;;37.47;24.13;;;18.00;99.90;;;;;;5073542;28;20024;-78
2021/08/22 05:51:56;;;;;;;35.33;22.70;;;18.00;99.90;;;;;;5073191;28;20101;-78
2021/08/22 05:54:21;;;;;;;34.10;21.83;;;17.90;99.90;;;;;;5074204;28;20491;-79
2021/08/22 05:56:47;;;;;;;31.08;21.52;;;18.00;99.90;;;;;;5073537;28;20031;-78
2021/08/22 05:59:12;;;;;;;34.38;21.50;;;18.00;99.90;;;;;;5076741;28;20028;-78
2021/08/22 06:01:38;;;;;;;31.02;21.20;;;18.00;99.90;;;;;;5073870;28;20020;-79
2021/08/22 06:04:04;;;;;;;32.92;20.02;;;18.00;99.90;;;;;;5075104;28;20020;-79
2021/08/22 06:06:29;;;;;;;38.40;20.63;;;18.00;99.90;;;;;;5073795;28;20021;-80
2021/08/22 06:08:55;;;;;;;26.65;18.40;;;18.10;99.90;;;;;;5076507;28;20051;-78
2021/08/22 06:11:20;;;;;;;24.95;17.80;;;18.10;99.90;;;;;;5075634;28;20021;-76
2021/08/22 06:13:46;;;;;;;27.38;16.92;;;18.10;99.90;;;;;;5075997;28;20082;-78
2021/08/22 06:16:11;;;;;;;24.08;16.13;;;18.10;99.90;;;;;;5074374;28;20029;-76
2021/08/22 06:18:37;;;;;;;22.27;15.73;;;18.10;99.90;;;;;;5072568;28;20090;-80
2021/08/22 06:21:03;;;;;;;24.50;15.85;;;18.10;99.90;;;;;;5077765;28;20040;-78
2021/08/22 06:23:28;;;;;;;24.05;16.15;;;18.20;99.90;;;;;;5076558;28;20044;-80
2021/08/22 06:25:54;;;;;;;25.80;15.57;;;18.20;99.90;;;;;;5075669;28;20107;-79
2021/08/22 06:28:19;;;;;;;19.85;15.13;;;18.20;99.90;;;;;;5073323;28;20017;-78
2021/08/22 06:30:45;;;;;;;22.90;14.73;;;18.20;99.90;;;;;;5078628;28;20036;-78
2021/08/22 06:33:11;;;;;;;24.73;15.68;;;18.20;99.90;;;;;;5080775;28;20383;-78
2021/08/22 06:35:36;;;;;;;26.23;16.05;;;18.20;99.90;;;;;;5074608;28;20020;-78
2021/08/22 06:38:02;;;;;;;24.10;16.58;;;18.20;99.90;;;;;;5075531;28;20040;-78
2021/08/22 06:40:28;;;;;;;26.75;16.95;;;18.30;99.90;;;;;;5073386;28;20484;-78
2021/08/22 06:42:54;;;;;;;22.55;17.65;;;18.30;99.90;;;;;;5077183;28;20020;-79
2021/08/22 06:45:19;;;;;;;25.75;18.35;;;18.40;99.90;;;;;;5075149;28;20032;-80
2021/08/22 06:47:48;;;;;;;24.55;18.92;;;18.40;99.90;;;;;;5079635;28;20475;-79
2021/08/22 06:50:14;;;;;;;32.35;19.35;;;18.50;99.90;;;;;;5092897;28;20024;-77
2021/08/22 06:52:39;;;;;;;34.05;22.35;;;18.50;99.90;;;;;;5092609;28;20533;-79
2021/08/22 06:55:05;;;;;;;30.65;22.73;;;18.60;99.90;;;;;;5092575;28;20021;-78
2021/08/22 06:57:31;;;;;;;31.30;22.60;;;18.60;99.90;;;;;;5092624;28;20024;-79
2021/08/22 06:59:56;;;;;;;27.05;19.55;;;18.50;99.90;;;;;;5092955;28;20039;-79
2021/08/22 07:02:22;;;;;;;30.40;21.15;;;18.50;99.90;;;;;;5091924;28;20016;-77
2021/08/22 07:04:47;;;;;;;30.33;21.15;;;18.60;99.90;;;;;;5092595;28;20039;-77
2021/08/22 07:07:13;;;;;;;27.70;19.88;;;18.60;99.90;;;;;;5092452;28;20051;-78
2021/08/22 07:09:38;;;;;;;27.33;20.02;;;18.60;99.90;;;;;;5091881;28;20024;-78
2021/08/22 07:12:05;;;;;;;28.88;19.77;;;18.60;99.90;;;;;;5092622;28;20020;-78
2021/08/22 07:14:30;;;;;;;25.30;19.20;;;18.60;99.90;;;;;;5092254;28;20055;-78
2021/08/22 07:16:56;;;;;;;21.02;18.67;;;18.60;99.90;;;;;;5082374;28;20052;-80
2021/08/22 07:19:21;;;;;;;25.67;19.60;;;18.90;99.90;;;;;;5072311;28;20032;-78
2021/08/22 07:21:47;;;;;;;24.05;18.60;;;18.60;99.90;;;;;;5071803;28;20473;-78
2021/08/22 07:24:12;;;;;;;21.40;17.13;;;18.60;99.90;;;;;;5071752;28;20025;-78
2021/08/22 07:26:38;;;;;;;24.08;17.58;;;18.60;99.90;;;;;;5071983;28;20021;-78
2021/08/22 07:29:03;;;;;;;21.83;17.77;;;18.60;99.90;;;;;;5083980;28;20041;-78
2021/08/22 07:31:30;;;;;;;23.13;16.90;;;18.60;99.90;;;;;;5087471;28;20638;-80
2021/08/22 07:33:56;;;;;;;23.50;16.77;;;18.70;99.90;;;;;;5074756;28;20392;-79
2021/08/22 07:36:21;;;;;;;22.23;17.83;;;18.70;99.90;;;;;;5075557;28;20111;-78
2021/08/22 07:38:47;;;;;;;22.08;17.30;;;18.80;99.90;;;;;;5085381;28;20059;-80
2021/08/22 07:41:12;;;;;;;20.77;17.25;;;18.90;99.90;;;;;;5081327;28;20410;-79
2021/08/22 07:43:38;;;;;;;27.17;17.67;;;19.00;99.90;;;;;;5085675;28;20035;-79
2021/08/22 07:46:04;;;;;;;19.80;15.05;;;19.10;99.90;;;;;;5073853;28;20025;-79
2021/08/22 07:48:29;;;;;;;17.60;15.02;;;19.20;99.90;;;;;;5078177;28;20400;-80
2021/08/22 07:50:55;;;;;;;22.35;16.42;;;19.40;99.90;;;;;;5091792;28;20085;-79
2021/08/22 07:53:20;;;;;;;22.17;16.50;;;19.60;99.90;;;;;;5091967;28;20024;-81
2021/08/22 07:55:47;;;;;;;20.35;15.20;;;19.80;99.90;;;;;;5092069;28;20024;-80
2021/08/22 07:58:13;;;;;;;21.17;14.75;;;19.90;99.90;;;;;;5091947;28;20062;-79
2021/08/22 08:00:39;;;;;;;20.98;14.63;;;20.20;99.90;;;;;;5092446;28;20044;-79
2021/08/22 08:03:04;;;;;;;18.38;15.10;;;20.40;99.90;;;;;;5091758;28;20065;-80
2021/08/22 08:05:30;;;;;;;17.20;14.75;;;20.50;99.90;;;;;;5078958;28;20115;-79
2021/08/22 08:07:56;;;;;;;19.25;16.45;;;20.50;99.90;;;;;;5091677;28;20038;-74
2021/08/22 08:10:24;;;;;;;19.95;14.98;;;20.30;99.90;;;;;;5093387;28;20122;-83
2021/08/22 08:12:50;;;;;;;22.92;15.93;;;20.20;99.90;;;;;;5094222;28;20051;-84
2021/08/22 08:15:16;;;;;;;18.00;14.18;;;20.10;99.90;;;;;;5077523;28;20024;-81
2021/08/22 08:17:42;;;;;;;20.38;14.30;;;20.00;99.90;;;;;;5088247;28;21529;-81
2021/08/22 08:20:08;;;;;;;14.80;12.98;;;20.00;99.90;;;;;;5088884;28;20059;-80
2021/08/22 08:22:34;;;;;;;17.67;15.20;;;19.90;99.90;;;;;;5085002;28;20372;-79
2021/08/22 08:24:59;;;;;;;16.30;13.50;;;19.90;99.90;;;;;;5094672;28;20020;-84
2021/08/22 08:27:25;;;;;;;18.67;14.68;;;19.80;99.90;;;;;;5092671;28;20024;-84
2021/08/22 08:29:51;;;;;;;18.15;15.88;;;19.80;99.90;;;;;;5088222;28;20360;-84
2021/08/22 08:32:17;;;;;;;20.77;14.90;;;19.80;99.90;;;;;;5102108;28;20020;-82
2021/08/22 08:34:43;;;;;;;21.92;15.82;;;19.80;99.90;;;;;;5084180;28;20070;-83
2021/08/22 08:37:08;;;;;;;19.75;15.98;;;19.90;99.90;;;;;;5092460;28;20051;-82
2021/08/22 08:39:34;;;;;;;22.00;16.85;;;20.00;99.90;;;;;;5087168;28;20029;-84
2021/08/22 08:42:21;;;;;;;19.77;16.10;;;20.00;99.90;;;;;;5077456;28;20021;-81
2021/08/22 08:44:48;;;;;;;18.58;16.52;;;20.10;99.90;;;;;;5085869;28;20036;-86
2021/08/22 08:47:15;;;;;;;19.25;16.20;;;20.10;99.90;;;;;;5095430;28;20020;-80
2021/08/22 08:50:03;;;;;;;22.25;16.35;;;20.20;99.90;;;;;;5080082;28;20029;-83
2021/08/22 08:52:30;;;;;;;20.30;16.73;;;20.20;99.90;;;;;;5072491;28;20029;-77
2021/08/22 08:55:03;;;;;;;20.95;16.23;;;20.30;99.90;;;;;;5074382;28;20031;-81
2021/08/22 08:57:31;;;;;;;19.20;17.08;;;20.40;99.90;;;;;;5080272;28;20032;-80
2021/08/22 08:59:57;;;;;;;18.17;15.35;;;20.60;99.90;;;;;;5091134;28;20495;-80
2021/08/22 09:02:22;;;;;;;20.52;16.42;;;20.80;99.90;;;;;;5081536;28;20024;-80
2021/08/22 09:04:57;;;;;;;18.73;15.73;;;21.10;99.90;;;;;;5079037;28;20416;-77
2021/08/22 09:07:42;;;;;;;16.17;14.50;;;21.30;99.90;;;;;;5081981;28;20017;-81
2021/08/22 09:10:45;;;;;;;18.17;14.95;;;21.50;99.90;;;;;;5083723;28;20078;-83
2021/08/22 09:13:48;;;;;;;17.17;15.40;;;21.80;99.90;;;;;;5088570;28;20024;-80
2021/08/22 09:16:44;;;;;;;20.58;16.00;;;21.90;99.90;;;;;;5095149;28;20465;-81
2021/08/22 09:19:51;;;;;;;19.10;15.15;;;21.80;99.90;;;;;;5088558;28;20476;-81
2021/08/22 09:22:52;;;;;;;15.95;14.35;;;21.80;99.90;;;;;;5084235;28;20021;-80
2021/08/22 09:25:36;;;;;;;;;;;21.70;99.90;;;;;;5059554;28;20142;-81
2021/08/22 09:28:26;;;;;;;19.00;16.65;;;21.70;99.90;;;;;;5080178;28;19908;-81
2021/08/22 09:31:23;;;;;;;20.00;15.35;;;21.70;99.90;;;;;;5082578;28;20435;-79
2021/08/22 09:34:26;;;;;;;15.02;13.52;;;21.80;99.90;;;;;;5094151;28;20040;-80
2021/08/22 09:37:06;;;;;;;14.75;13.25;;;21.80;99.90;;;;;;5087885;28;20109;-82
2021/08/22 09:40:09;;;;;;;14.73;13.20;;;21.80;99.90;;;;;;5082699;28;20047;-79
2021/08/22 09:43:15;;;;;;;17.85;15.43;;;21.80;99.90;;;;;;5075653;28;20026;-79
2021/08/22 09:45:59;;;;;;;13.93;12.60;;;21.90;99.90;;;;;;5079669;28;20024;-78
2021/08/22 09:48:33;;;;;;;15.27;12.35;;;22.00;99.90;;;;;;5083888;28;20074;-81
2021/08/22 09:51:16;;;;;;;13.90;11.68;;;22.00;99.90;;;;;;5075873;28;20036;-79
2021/08/22 09:54:04;;;;;;;13.40;11.98;;;22.10;99.90;;;;;;5082913;28;20044;-80
2021/08/22 09:56:35;;;;;;;13.15;11.10;;;22.20;99.90;;;;;;5089523;28;20032;-79
2021/08/22 09:59:25;;;;;;;11.95;10.75;;;22.20;99.90;;;;;;5081466;28;20055;-80
2021/08/22 10:02:17;;;;;;;12.00;10.88;;;22.20;99.90;;;;;;5084878;28;20069;-80
2021/08/22 10:05:08;;;;;;;12.93;11.10;;;22.20;99.90;;;;;;5091875;28;20119;-79
2021/08/22 10:08:14;;;;;;;11.70;10.55;;;22.20;99.90;;;;;;5083630;28;20103;-79
2021/08/22 10:10:52;;;;;;;10.73;9.82;;;22.20;99.90;;;;;;5016200;28;20034;-78
2021/08/22 10:13:17;;;;;;;13.18;11.68;;;22.20;99.90;;;;;;5021443;28;20041;-79
2021/08/22 10:15:44;;;;;;;13.77;12.38;;;22.30;99.90;;;;;;5056860;28;20032;-79
2021/08/22 10:18:10;;;;;;;12.00;10.85;;;22.20;99.90;;;;;;5077835;28;20034;-79
2021/08/22 10:20:43;;;;;;;12.93;11.75;;;22.20;99.90;;;;;;5081939;28;20036;-80
2021/08/22 10:23:38;;;;;;;10.50;9.60;;;22.30;99.90;;;;;;5083307;28;20040;-79
2021/08/22 10:26:07;;;;;;;10.20;9.30;;;22.30;99.90;;;;;;5078637;28;20360;-79
2021/08/22 10:28:44;;;;;;;10.98;9.82;;;22.30;99.90;;;;;;5084946;28;20016;-80
2021/08/22 10:31:11;;;;;;;10.98;9.48;;;22.20;99.90;;;;;;5080510;28;20529;-80
2021/08/22 10:34:02;;;;;;;10.00;9.10;;;22.10;99.90;;;;;;5088658;28;20013;-80
2021/08/22 10:36:29;;;;;;;10.77;9.77;;;22.00;99.90;;;;;;5079656;28;20456;-79
2021/08/22 10:39:26;;;;;;;13.57;8.93;;;22.00;99.90;;;;;;5080563;28;20048;-79
2021/08/22 10:41:56;;;;;;;10.40;9.35;;;22.00;99.90;;;;;;5071039;28;20035;-80
2021/08/22 10:44:34;;;;;;;10.20;9.35;;;21.80;99.90;;;;;;5077649;28;20028;-80
2021/08/22 10:47:03;;;;;;;11.95;10.85;;;21.80;99.90;;;;;;5078434;28;20111;-79
2021/08/22 10:49:54;;;;;;;12.80;11.60;;;21.60;99.90;;;;;;5083065;28;20020;-79
2021/08/22 10:52:30;;;;;;;13.43;12.02;;;21.50;99.90;;;;;;5079638;28;20044;-79
2021/08/22 10:55:14;;;;;;;16.77;12.60;;;21.50;99.90;;;;;;5089117;28;20487;-80
2021/08/22 10:57:49;;;;;;;16.85;12.88;;;22.20;99.90;;;;;;5082606;28;20021;-79
2021/08/22 11:00:29;;;;;;;16.63;13.00;;;21.30;99.90;;;;;;5078500;28;20454;-79
2021/08/22 11:03:01;;;;;;;14.88;12.88;;;21.10;99.90;;;;;;5075511;28;20086;-80
2021/08/22 11:05:34;;;;;;;13.63;12.30;;;21.00;99.90;;;;;;5086451;28;20107;-80
2021/08/22 11:08:16;;;;;;;15.15;11.88;;;20.80;99.90;;;;;;5088687;28;20457;-80
2021/08/22 11:10:57;;;;;;;11.18;9.80;;;20.70;99.90;;;;;;5090741;28;20024;-80
2021/08/22 11:13:22;;;;;;;;;;;20.60;99.90;;;;;;5090804;28;20115;-79
2021/08/22 11:15:48;;;;;;;2.80;1.80;;;20.60;99.90;;;;;;5083960;28;19958;-80
2021/08/22 11:18:20;;;;;;;2.90;1.90;;;20.20;99.90;;;;;;5075411;28;20024;-80
2021/08/22 11:20:48;;;;;;;1.77;1.67;;;20.00;99.90;;;;;;5088852;28;20028;-80
2021/08/22 11:23:17;;;;;;;2.42;2.22;;;19.90;99.90;;;;;;5090934;28;20043;-80
2021/08/22 11:25:45;;;;;;;3.50;2.40;;;19.60;99.90;;;;;;5086443;28;20024;-80
2021/08/22 11:28:16;;;;;;;3.13;2.05;;;19.50;99.90;;;;;;5086935;28;20032;-80
2021/08/22 11:30:43;;;;;;;5.00;2.33;;;19.60;99.90;;;;;;5090090;28;20023;-80
2021/08/22 11:33:09;;;;;;;2.80;1.70;;;19.20;99.90;;;;;;5087208;28;20043;-80
2021/08/22 11:35:49;;;;;;;2.25;1.80;;;19.10;99.90;;;;;;5075208;28;20142;-80
2021/08/22 11:38:16;;;;;;;1.90;1.52;;;18.90;99.90;;;;;;5090435;28;20071;-80
2021/08/22 11:40:42;;;;;;;2.55;1.50;;;18.80;99.90;;;;;;5090678;28;20491;-80
2021/08/22 11:43:15;;;;;;;2.03;1.27;;;18.70;99.90;;;;;;5082022;28;20497;-80
2021/08/22 11:45:43;;;;;;;2.08;1.40;;;18.60;99.90;;;;;;5076981;28;20016;-79
2021/08/22 11:48:17;;;;;;;2.25;1.23;;;18.50;99.90;;;;;;5084932;28;20036;-78
2021/08/22 11:50:43;;;;;;;2.78;1.33;;;19.50;99.90;;;;;;5076045;28;20039;-79
2021/08/22 11:53:10;;;;;;;2.25;1.35;;;18.30;99.90;;;;;;5076819;28;20048;-78
2021/08/22 11:55:37;;;;;;;2.50;1.45;;;18.20;99.90;;;;;;5077175;28;20440;-78
2021/08/22 11:58:21;;;;;;;2.30;1.73;;;18.10;99.90;;;;;;5072609;28;20050;-77
2021/08/22 12:00:52;;;;;;;3.13;1.92;;;18.10;99.90;;;;;;5074038;28;20117;-76
2021/08/22 12:03:24;;;;;;;;;;;18.10;99.90;;;;;;5079227;28;20284;-77
2021/08/22 12:06:00;;;;;;;2.38;1.92;;;18.00;99.90;;;;;;5084426;28;19904;-77
2021/08/22 12:08:27;;;;;;;2.47;2.22;;;18.10;99.90;;;;;;5074973;28;20024;-76
2021/08/22 12:11:10;;;;;;;3.13;2.40;;;18.20;99.90;;;;;;5086004;28;20483;-74
2021/08/22 12:13:37;;;;;;;2.83;2.55;;;18.40;99.90;;;;;;5076255;28;20410;-77
2021/08/22 12:16:21;;;;;;;7.85;3.13;;;18.50;99.90;;;;;;5076405;28;20020;-76
2021/08/22 12:18:46;;;;;;;5.07;3.55;;;18.70;99.90;;;;;;5073113;28;20405;-77
2021/08/22 12:21:18;;;;;;;3.05;2.72;;;19.30;99.90;;;;;;5080631;28;20062;-76
2021/08/22 12:23:48;;;;;;;5.28;3.60;;;19.10;99.90;;;;;;5070351;28;20376;-76
2021/08/22 12:26:25;;;;;;;3.17;2.88;;;19.30;99.90;;;;;;5080095;28;20033;-77
2021/08/22 12:28:53;;;;;;;3.88;3.40;;;19.50;99.90;;;;;;5085275;28;20040;-76
2021/08/22 12:31:19;;;;;;;3.95;3.50;;;19.60;99.90;;;;;;5088227;28;20023;-77
2021/08/22 12:33:47;;;;;;;5.68;4.00;;;19.80;99.90;;;;;;5093530;28;20039;-76
2021/08/22 12:36:38;;;;;;;3.83;3.53;;;19.80;99.90;;;;;;5089723;28;20016;-77
2021/08/22 12:39:11;;;;;;;4.70;4.40;;;19.80;99.90;;;;;;5073290;28;20048;-77
2021/08/22 12:41:47;;;;;;;6.85;4.65;;;19.90;99.90;;;;;;5085207;28;20021;-78
2021/08/22 12:44:23;;;;;;;5.18;4.78;;;19.90;99.90;;;;;;5073165;28;20077;-77
2021/08/22 12:46:55;;;;;;;7.43;5.32;;;20.00;99.90;;;;;;5072367;28;20021;-77